<?xml version="1.0" encoding="UTF-8" standalone="no" ?>
<gpx xmlns="http://www.topografix.com/GPX/1/1" xmlns:xsi="http://www.w3.org/2001/XMLSchema-instance" xsi:schemaLocation="http://www.topografix.com/GPX/1/1 http://www.topografix.com/GPX/1/1/gpx.xsd" version="1.1" creator="VisuGPX - https://www.visugpx.com">
  <metadata>
    <name>20180322_SDR_FRA_Recoin,Croix de Chamrousse</name>
    <desc><![CDATA[20180322_SDR_FRA_Recoin,Croix de Chamrousse]]></desc>
  </metadata>
  <trk>
    <name><![CDATA[20180322_SDR_FRA_Recoin,Croix de Chamrousse]]></name>
    <trkseg>
      <trkpt lat="45.12582" lon="5.87891">
        <ele>1650.24</ele>
        <time>2018-03-22T05:41:57Z</time>
      </trkpt>
      <trkpt lat="45.12585" lon="5.87904">
        <ele>1649.76</ele>
        <time>2018-03-22T05:42:34Z</time>
      </trkpt>
      <trkpt lat="45.12583" lon="5.87917">
        <ele>1649.76</ele>
        <time>2018-03-22T05:42:40Z</time>
      </trkpt>
      <trkpt lat="45.12591" lon="5.87926">
        <ele>1653.6</ele>
        <time>2018-03-22T05:43:18Z</time>
      </trkpt>
      <trkpt lat="45.12586" lon="5.87925">
        <ele>1654.09</ele>
        <time>2018-03-22T05:43:42Z</time>
      </trkpt>
      <trkpt lat="45.12586" lon="5.87931">
        <ele>1654.09</ele>
        <time>2018-03-22T05:44:24Z</time>
      </trkpt>
      <trkpt lat="45.12584" lon="5.87945">
        <ele>1653.12</ele>
        <time>2018-03-22T05:44:30Z</time>
      </trkpt>
      <trkpt lat="45.12582" lon="5.8796">
        <ele>1654.09</ele>
        <time>2018-03-22T05:44:37Z</time>
      </trkpt>
      <trkpt lat="45.12581" lon="5.87977">
        <ele>1654.57</ele>
        <time>2018-03-22T05:44:44Z</time>
      </trkpt>
      <trkpt lat="45.12578" lon="5.8799">
        <ele>1654.57</ele>
        <time>2018-03-22T05:44:51Z</time>
      </trkpt>
      <trkpt lat="45.12574" lon="5.88001">
        <ele>1654.57</ele>
        <time>2018-03-22T05:44:57Z</time>
      </trkpt>
      <trkpt lat="45.12569" lon="5.88014">
        <ele>1655.05</ele>
        <time>2018-03-22T05:45:05Z</time>
      </trkpt>
      <trkpt lat="45.12564" lon="5.88025">
        <ele>1656.01</ele>
        <time>2018-03-22T05:45:13Z</time>
      </trkpt>
      <trkpt lat="45.12557" lon="5.88037">
        <ele>1657.93</ele>
        <time>2018-03-22T05:45:22Z</time>
      </trkpt>
      <trkpt lat="45.1255" lon="5.88047">
        <ele>1659.37</ele>
        <time>2018-03-22T05:45:31Z</time>
      </trkpt>
      <trkpt lat="45.1254" lon="5.88055">
        <ele>1662.26</ele>
        <time>2018-03-22T05:45:42Z</time>
      </trkpt>
      <trkpt lat="45.12531" lon="5.88062">
        <ele>1664.66</ele>
        <time>2018-03-22T05:45:53Z</time>
      </trkpt>
      <trkpt lat="45.12521" lon="5.88068">
        <ele>1666.1</ele>
        <time>2018-03-22T05:46:03Z</time>
      </trkpt>
      <trkpt lat="45.12512" lon="5.88071">
        <ele>1667.06</ele>
        <time>2018-03-22T05:46:12Z</time>
      </trkpt>
      <trkpt lat="45.12504" lon="5.88074">
        <ele>1668.51</ele>
        <time>2018-03-22T05:46:21Z</time>
      </trkpt>
      <trkpt lat="45.12494" lon="5.88076">
        <ele>1670.43</ele>
        <time>2018-03-22T05:46:31Z</time>
      </trkpt>
      <trkpt lat="45.12484" lon="5.88078">
        <ele>1671.87</ele>
        <time>2018-03-22T05:46:42Z</time>
      </trkpt>
      <trkpt lat="45.12474" lon="5.8808">
        <ele>1674.27</ele>
        <time>2018-03-22T05:46:52Z</time>
      </trkpt>
      <trkpt lat="45.12465" lon="5.88082">
        <ele>1676.68</ele>
        <time>2018-03-22T05:47:03Z</time>
      </trkpt>
      <trkpt lat="45.12455" lon="5.88084">
        <ele>1679.08</ele>
        <time>2018-03-22T05:47:14Z</time>
      </trkpt>
      <trkpt lat="45.12447" lon="5.88089">
        <ele>1681.96</ele>
        <time>2018-03-22T05:47:25Z</time>
      </trkpt>
      <trkpt lat="45.12439" lon="5.88092">
        <ele>1685.33</ele>
        <time>2018-03-22T05:47:37Z</time>
      </trkpt>
      <trkpt lat="45.12429" lon="5.88092">
        <ele>1689.17</ele>
        <time>2018-03-22T05:47:49Z</time>
      </trkpt>
      <trkpt lat="45.12421" lon="5.88097">
        <ele>1690.62</ele>
        <time>2018-03-22T05:48:00Z</time>
      </trkpt>
      <trkpt lat="45.12412" lon="5.88103">
        <ele>1693.5</ele>
        <time>2018-03-22T05:48:12Z</time>
      </trkpt>
      <trkpt lat="45.12404" lon="5.88106">
        <ele>1696.38</ele>
        <time>2018-03-22T05:48:24Z</time>
      </trkpt>
      <trkpt lat="45.12395" lon="5.88111">
        <ele>1699.75</ele>
        <time>2018-03-22T05:48:36Z</time>
      </trkpt>
      <trkpt lat="45.12387" lon="5.88114">
        <ele>1702.63</ele>
        <time>2018-03-22T05:48:48Z</time>
      </trkpt>
      <trkpt lat="45.12379" lon="5.88119">
        <ele>1706.48</ele>
        <time>2018-03-22T05:49:01Z</time>
      </trkpt>
      <trkpt lat="45.1237" lon="5.88125">
        <ele>1709.84</ele>
        <time>2018-03-22T05:49:14Z</time>
      </trkpt>
      <trkpt lat="45.12361" lon="5.88132">
        <ele>1714.17</ele>
        <time>2018-03-22T05:49:27Z</time>
      </trkpt>
      <trkpt lat="45.12352" lon="5.8814">
        <ele>1718.97</ele>
        <time>2018-03-22T05:49:41Z</time>
      </trkpt>
      <trkpt lat="45.12343" lon="5.8815">
        <ele>1722.82</ele>
        <time>2018-03-22T05:50:01Z</time>
      </trkpt>
      <trkpt lat="45.12334" lon="5.88158">
        <ele>1726.18</ele>
        <time>2018-03-22T05:50:17Z</time>
      </trkpt>
      <trkpt lat="45.12328" lon="5.8817">
        <ele>1729.55</ele>
        <time>2018-03-22T05:50:33Z</time>
      </trkpt>
      <trkpt lat="45.12321" lon="5.88179">
        <ele>1733.39</ele>
        <time>2018-03-22T05:50:50Z</time>
      </trkpt>
      <trkpt lat="45.12314" lon="5.88185">
        <ele>1736.76</ele>
        <time>2018-03-22T05:51:12Z</time>
      </trkpt>
      <trkpt lat="45.12306" lon="5.88195">
        <ele>1741.57</ele>
        <time>2018-03-22T05:51:28Z</time>
      </trkpt>
      <trkpt lat="45.12298" lon="5.88204">
        <ele>1745.89</ele>
        <time>2018-03-22T05:51:45Z</time>
      </trkpt>
      <trkpt lat="45.1229" lon="5.88214">
        <ele>1750.7</ele>
        <time>2018-03-22T05:52:00Z</time>
      </trkpt>
      <trkpt lat="45.12282" lon="5.88224">
        <ele>1755.99</ele>
        <time>2018-03-22T05:52:16Z</time>
      </trkpt>
      <trkpt lat="45.12275" lon="5.88233">
        <ele>1758.87</ele>
        <time>2018-03-22T05:52:33Z</time>
      </trkpt>
      <trkpt lat="45.12267" lon="5.8824">
        <ele>1763.68</ele>
        <time>2018-03-22T05:52:51Z</time>
      </trkpt>
      <trkpt lat="45.12263" lon="5.88251">
        <ele>1767.52</ele>
        <time>2018-03-22T05:53:07Z</time>
      </trkpt>
      <trkpt lat="45.12256" lon="5.8826">
        <ele>1771.37</ele>
        <time>2018-03-22T05:53:23Z</time>
      </trkpt>
      <trkpt lat="45.12249" lon="5.88266">
        <ele>1776.65</ele>
        <time>2018-03-22T05:53:40Z</time>
      </trkpt>
      <trkpt lat="45.12243" lon="5.88274">
        <ele>1778.58</ele>
        <time>2018-03-22T05:53:57Z</time>
      </trkpt>
      <trkpt lat="45.12236" lon="5.88286">
        <ele>1781.94</ele>
        <time>2018-03-22T05:54:11Z</time>
      </trkpt>
      <trkpt lat="45.12231" lon="5.88294">
        <ele>1784.82</ele>
        <time>2018-03-22T05:54:24Z</time>
      </trkpt>
      <trkpt lat="45.12227" lon="5.88302">
        <ele>1787.23</ele>
        <time>2018-03-22T05:54:38Z</time>
      </trkpt>
      <trkpt lat="45.12225" lon="5.88314">
        <ele>1789.15</ele>
        <time>2018-03-22T05:54:50Z</time>
      </trkpt>
      <trkpt lat="45.12221" lon="5.88319">
        <ele>1791.55</ele>
        <time>2018-03-22T05:55:46Z</time>
      </trkpt>
      <trkpt lat="45.12219" lon="5.88335">
        <ele>1795.4</ele>
        <time>2018-03-22T05:55:59Z</time>
      </trkpt>
      <trkpt lat="45.12215" lon="5.88347">
        <ele>1795.4</ele>
        <time>2018-03-22T05:56:11Z</time>
      </trkpt>
      <trkpt lat="45.12211" lon="5.88359">
        <ele>1798.28</ele>
        <time>2018-03-22T05:56:27Z</time>
      </trkpt>
      <trkpt lat="45.12208" lon="5.88371">
        <ele>1799.73</ele>
        <time>2018-03-22T05:56:37Z</time>
      </trkpt>
      <trkpt lat="45.12204" lon="5.88382">
        <ele>1801.65</ele>
        <time>2018-03-22T05:56:47Z</time>
      </trkpt>
      <trkpt lat="45.122" lon="5.88393">
        <ele>1804.05</ele>
        <time>2018-03-22T05:56:59Z</time>
      </trkpt>
      <trkpt lat="45.12196" lon="5.88406">
        <ele>1805.97</ele>
        <time>2018-03-22T05:57:10Z</time>
      </trkpt>
      <trkpt lat="45.12192" lon="5.88417">
        <ele>1806.45</ele>
        <time>2018-03-22T05:57:20Z</time>
      </trkpt>
      <trkpt lat="45.12188" lon="5.88428">
        <ele>1808.38</ele>
        <time>2018-03-22T05:57:30Z</time>
      </trkpt>
      <trkpt lat="45.12183" lon="5.88438">
        <ele>1810.3</ele>
        <time>2018-03-22T05:57:40Z</time>
      </trkpt>
      <trkpt lat="45.1218" lon="5.8845">
        <ele>1811.26</ele>
        <time>2018-03-22T05:57:52Z</time>
      </trkpt>
      <trkpt lat="45.12174" lon="5.88463">
        <ele>1814.63</ele>
        <time>2018-03-22T05:58:04Z</time>
      </trkpt>
      <trkpt lat="45.12169" lon="5.88473">
        <ele>1816.55</ele>
        <time>2018-03-22T05:58:16Z</time>
      </trkpt>
      <trkpt lat="45.12165" lon="5.88483">
        <ele>1819.43</ele>
        <time>2018-03-22T05:58:30Z</time>
      </trkpt>
      <trkpt lat="45.12161" lon="5.88495">
        <ele>1823.28</ele>
        <time>2018-03-22T05:58:43Z</time>
      </trkpt>
      <trkpt lat="45.12157" lon="5.88505">
        <ele>1825.68</ele>
        <time>2018-03-22T05:58:57Z</time>
      </trkpt>
      <trkpt lat="45.12156" lon="5.88518">
        <ele>1828.08</ele>
        <time>2018-03-22T05:59:12Z</time>
      </trkpt>
      <trkpt lat="45.12153" lon="5.88531">
        <ele>1830.97</ele>
        <time>2018-03-22T05:59:28Z</time>
      </trkpt>
      <trkpt lat="45.12151" lon="5.88543">
        <ele>1834.81</ele>
        <time>2018-03-22T05:59:41Z</time>
      </trkpt>
      <trkpt lat="45.12151" lon="5.88554">
        <ele>1837.7</ele>
        <time>2018-03-22T05:59:55Z</time>
      </trkpt>
      <trkpt lat="45.12149" lon="5.88567">
        <ele>1841.06</ele>
        <time>2018-03-22T06:00:09Z</time>
      </trkpt>
      <trkpt lat="45.12147" lon="5.8858">
        <ele>1843.95</ele>
        <time>2018-03-22T06:00:26Z</time>
      </trkpt>
      <trkpt lat="45.12144" lon="5.88593">
        <ele>1847.31</ele>
        <time>2018-03-22T06:00:40Z</time>
      </trkpt>
      <trkpt lat="45.12142" lon="5.88605">
        <ele>1849.23</ele>
        <time>2018-03-22T06:00:52Z</time>
      </trkpt>
      <trkpt lat="45.12139" lon="5.88618">
        <ele>1851.16</ele>
        <time>2018-03-22T06:01:04Z</time>
      </trkpt>
      <trkpt lat="45.12138" lon="5.88631">
        <ele>1854.52</ele>
        <time>2018-03-22T06:01:16Z</time>
      </trkpt>
      <trkpt lat="45.12135" lon="5.88644">
        <ele>1856.44</ele>
        <time>2018-03-22T06:01:28Z</time>
      </trkpt>
      <trkpt lat="45.12134" lon="5.88657">
        <ele>1859.33</ele>
        <time>2018-03-22T06:01:40Z</time>
      </trkpt>
      <trkpt lat="45.12133" lon="5.8867">
        <ele>1861.25</ele>
        <time>2018-03-22T06:01:50Z</time>
      </trkpt>
      <trkpt lat="45.12131" lon="5.88683">
        <ele>1863.17</ele>
        <time>2018-03-22T06:02:01Z</time>
      </trkpt>
      <trkpt lat="45.1213" lon="5.88696">
        <ele>1865.09</ele>
        <time>2018-03-22T06:02:11Z</time>
      </trkpt>
      <trkpt lat="45.12128" lon="5.88708">
        <ele>1866.54</ele>
        <time>2018-03-22T06:02:21Z</time>
      </trkpt>
      <trkpt lat="45.12131" lon="5.88721">
        <ele>1867.02</ele>
        <time>2018-03-22T06:02:32Z</time>
      </trkpt>
      <trkpt lat="45.12132" lon="5.88734">
        <ele>1867.5</ele>
        <time>2018-03-22T06:02:43Z</time>
      </trkpt>
      <trkpt lat="45.12135" lon="5.88747">
        <ele>1868.46</ele>
        <time>2018-03-22T06:02:53Z</time>
      </trkpt>
      <trkpt lat="45.12138" lon="5.88759">
        <ele>1868.94</ele>
        <time>2018-03-22T06:03:02Z</time>
      </trkpt>
      <trkpt lat="45.12141" lon="5.88773">
        <ele>1869.9</ele>
        <time>2018-03-22T06:03:12Z</time>
      </trkpt>
      <trkpt lat="45.12144" lon="5.88788">
        <ele>1870.38</ele>
        <time>2018-03-22T06:03:22Z</time>
      </trkpt>
      <trkpt lat="45.12146" lon="5.88799">
        <ele>1871.34</ele>
        <time>2018-03-22T06:03:31Z</time>
      </trkpt>
      <trkpt lat="45.12148" lon="5.88813">
        <ele>1871.34</ele>
        <time>2018-03-22T06:03:41Z</time>
      </trkpt>
      <trkpt lat="45.1215" lon="5.88827">
        <ele>1872.3</ele>
        <time>2018-03-22T06:03:51Z</time>
      </trkpt>
      <trkpt lat="45.1215" lon="5.88844">
        <ele>1873.75</ele>
        <time>2018-03-22T06:04:02Z</time>
      </trkpt>
      <trkpt lat="45.1215" lon="5.8886">
        <ele>1876.15</ele>
        <time>2018-03-22T06:04:14Z</time>
      </trkpt>
      <trkpt lat="45.1215" lon="5.88874">
        <ele>1877.59</ele>
        <time>2018-03-22T06:04:26Z</time>
      </trkpt>
      <trkpt lat="45.1215" lon="5.88889">
        <ele>1878.55</ele>
        <time>2018-03-22T06:04:39Z</time>
      </trkpt>
      <trkpt lat="45.12148" lon="5.88906">
        <ele>1882.88</ele>
        <time>2018-03-22T06:04:53Z</time>
      </trkpt>
      <trkpt lat="45.12148" lon="5.8892">
        <ele>1887.21</ele>
        <time>2018-03-22T06:05:09Z</time>
      </trkpt>
      <trkpt lat="45.12147" lon="5.88935">
        <ele>1889.61</ele>
        <time>2018-03-22T06:05:24Z</time>
      </trkpt>
      <trkpt lat="45.12147" lon="5.88949">
        <ele>1892.01</ele>
        <time>2018-03-22T06:05:37Z</time>
      </trkpt>
      <trkpt lat="45.12146" lon="5.88964">
        <ele>1893.45</ele>
        <time>2018-03-22T06:05:49Z</time>
      </trkpt>
      <trkpt lat="45.12144" lon="5.88978">
        <ele>1895.86</ele>
        <time>2018-03-22T06:06:01Z</time>
      </trkpt>
      <trkpt lat="45.12143" lon="5.88993">
        <ele>1897.78</ele>
        <time>2018-03-22T06:06:14Z</time>
      </trkpt>
      <trkpt lat="45.12141" lon="5.89008">
        <ele>1901.14</ele>
        <time>2018-03-22T06:06:29Z</time>
      </trkpt>
      <trkpt lat="45.12141" lon="5.89022">
        <ele>1904.99</ele>
        <time>2018-03-22T06:06:44Z</time>
      </trkpt>
      <trkpt lat="45.12135" lon="5.89034">
        <ele>1907.87</ele>
        <time>2018-03-22T06:06:59Z</time>
      </trkpt>
      <trkpt lat="45.1213" lon="5.89046">
        <ele>1911.24</ele>
        <time>2018-03-22T06:07:13Z</time>
      </trkpt>
      <trkpt lat="45.12125" lon="5.89058">
        <ele>1915.08</ele>
        <time>2018-03-22T06:07:26Z</time>
      </trkpt>
      <trkpt lat="45.12122" lon="5.89069">
        <ele>1917.49</ele>
        <time>2018-03-22T06:07:42Z</time>
      </trkpt>
      <trkpt lat="45.12123" lon="5.89084">
        <ele>1921.33</ele>
        <time>2018-03-22T06:08:00Z</time>
      </trkpt>
      <trkpt lat="45.1212" lon="5.89096">
        <ele>1923.25</ele>
        <time>2018-03-22T06:08:14Z</time>
      </trkpt>
      <trkpt lat="45.12114" lon="5.89108">
        <ele>1927.58</ele>
        <time>2018-03-22T06:08:30Z</time>
      </trkpt>
      <trkpt lat="45.1211" lon="5.89119">
        <ele>1930.95</ele>
        <time>2018-03-22T06:08:45Z</time>
      </trkpt>
      <trkpt lat="45.12106" lon="5.89131">
        <ele>1933.83</ele>
        <time>2018-03-22T06:09:02Z</time>
      </trkpt>
      <trkpt lat="45.12102" lon="5.89142">
        <ele>1937.19</ele>
        <time>2018-03-22T06:09:19Z</time>
      </trkpt>
      <trkpt lat="45.12098" lon="5.89153">
        <ele>1940.56</ele>
        <time>2018-03-22T06:09:34Z</time>
      </trkpt>
      <trkpt lat="45.12095" lon="5.89165">
        <ele>1943.92</ele>
        <time>2018-03-22T06:09:49Z</time>
      </trkpt>
      <trkpt lat="45.12091" lon="5.89179">
        <ele>1946.81</ele>
        <time>2018-03-22T06:10:04Z</time>
      </trkpt>
      <trkpt lat="45.12089" lon="5.89189">
        <ele>1950.17</ele>
        <time>2018-03-22T06:10:31Z</time>
      </trkpt>
      <trkpt lat="45.12085" lon="5.892">
        <ele>1952.57</ele>
        <time>2018-03-22T06:10:44Z</time>
      </trkpt>
      <trkpt lat="45.1208" lon="5.89209">
        <ele>1956.42</ele>
        <time>2018-03-22T06:10:59Z</time>
      </trkpt>
      <trkpt lat="45.12071" lon="5.89219">
        <ele>1959.78</ele>
        <time>2018-03-22T06:11:15Z</time>
      </trkpt>
      <trkpt lat="45.12067" lon="5.8923">
        <ele>1962.19</ele>
        <time>2018-03-22T06:11:28Z</time>
      </trkpt>
      <trkpt lat="45.12068" lon="5.89241">
        <ele>1964.11</ele>
        <time>2018-03-22T06:11:38Z</time>
      </trkpt>
      <trkpt lat="45.12069" lon="5.89254">
        <ele>1966.03</ele>
        <time>2018-03-22T06:11:51Z</time>
      </trkpt>
      <trkpt lat="45.12069" lon="5.89269">
        <ele>1967.48</ele>
        <time>2018-03-22T06:12:07Z</time>
      </trkpt>
      <trkpt lat="45.12073" lon="5.89282">
        <ele>1970.84</ele>
        <time>2018-03-22T06:12:20Z</time>
      </trkpt>
      <trkpt lat="45.12073" lon="5.89296">
        <ele>1974.69</ele>
        <time>2018-03-22T06:12:36Z</time>
      </trkpt>
      <trkpt lat="45.12072" lon="5.89311">
        <ele>1978.53</ele>
        <time>2018-03-22T06:12:53Z</time>
      </trkpt>
      <trkpt lat="45.12073" lon="5.89325">
        <ele>1981.9</ele>
        <time>2018-03-22T06:13:08Z</time>
      </trkpt>
      <trkpt lat="45.12078" lon="5.89336">
        <ele>1985.26</ele>
        <time>2018-03-22T06:13:21Z</time>
      </trkpt>
      <trkpt lat="45.12087" lon="5.89341">
        <ele>1989.59</ele>
        <time>2018-03-22T06:13:45Z</time>
      </trkpt>
      <trkpt lat="45.12086" lon="5.89357">
        <ele>1991.03</ele>
        <time>2018-03-22T06:14:00Z</time>
      </trkpt>
      <trkpt lat="45.12091" lon="5.89368">
        <ele>1995.35</ele>
        <time>2018-03-22T06:14:17Z</time>
      </trkpt>
      <trkpt lat="45.12099" lon="5.89378">
        <ele>1999.2</ele>
        <time>2018-03-22T06:14:34Z</time>
      </trkpt>
      <trkpt lat="45.12101" lon="5.89391">
        <ele>2002.08</ele>
        <time>2018-03-22T06:14:49Z</time>
      </trkpt>
      <trkpt lat="45.12097" lon="5.89406">
        <ele>2004.97</ele>
        <time>2018-03-22T06:15:04Z</time>
      </trkpt>
      <trkpt lat="45.12102" lon="5.89416">
        <ele>2009.29</ele>
        <time>2018-03-22T06:15:19Z</time>
      </trkpt>
      <trkpt lat="45.12107" lon="5.89428">
        <ele>2013.14</ele>
        <time>2018-03-22T06:15:33Z</time>
      </trkpt>
      <trkpt lat="45.12108" lon="5.8944">
        <ele>2015.06</ele>
        <time>2018-03-22T06:15:45Z</time>
      </trkpt>
      <trkpt lat="45.12109" lon="5.89453">
        <ele>2016.02</ele>
        <time>2018-03-22T06:15:58Z</time>
      </trkpt>
      <trkpt lat="45.12112" lon="5.89465">
        <ele>2017.94</ele>
        <time>2018-03-22T06:16:12Z</time>
      </trkpt>
      <trkpt lat="45.12115" lon="5.89479">
        <ele>2018.91</ele>
        <time>2018-03-22T06:16:24Z</time>
      </trkpt>
      <trkpt lat="45.12119" lon="5.89492">
        <ele>2019.39</ele>
        <time>2018-03-22T06:16:34Z</time>
      </trkpt>
      <trkpt lat="45.12123" lon="5.89505">
        <ele>2020.35</ele>
        <time>2018-03-22T06:16:45Z</time>
      </trkpt>
      <trkpt lat="45.12128" lon="5.89521">
        <ele>2022.75</ele>
        <time>2018-03-22T06:16:58Z</time>
      </trkpt>
      <trkpt lat="45.12129" lon="5.89534">
        <ele>2026.12</ele>
        <time>2018-03-22T06:17:12Z</time>
      </trkpt>
      <trkpt lat="45.12133" lon="5.89543">
        <ele>2028.04</ele>
        <time>2018-03-22T06:17:25Z</time>
      </trkpt>
      <trkpt lat="45.12137" lon="5.89554">
        <ele>2031.88</ele>
        <time>2018-03-22T06:17:42Z</time>
      </trkpt>
      <trkpt lat="45.12147" lon="5.89558">
        <ele>2034.77</ele>
        <time>2018-03-22T06:17:58Z</time>
      </trkpt>
      <trkpt lat="45.1215" lon="5.89574">
        <ele>2038.13</ele>
        <time>2018-03-22T06:18:17Z</time>
      </trkpt>
      <trkpt lat="45.12147" lon="5.8959">
        <ele>2041.5</ele>
        <time>2018-03-22T06:18:35Z</time>
      </trkpt>
      <trkpt lat="45.12143" lon="5.89606">
        <ele>2044.38</ele>
        <time>2018-03-22T06:18:53Z</time>
      </trkpt>
      <trkpt lat="45.12151" lon="5.89615">
        <ele>2047.75</ele>
        <time>2018-03-22T06:19:09Z</time>
      </trkpt>
      <trkpt lat="45.12158" lon="5.89625">
        <ele>2051.59</ele>
        <time>2018-03-22T06:19:24Z</time>
      </trkpt>
      <trkpt lat="45.12157" lon="5.89643">
        <ele>2054.47</ele>
        <time>2018-03-22T06:19:48Z</time>
      </trkpt>
      <trkpt lat="45.12158" lon="5.89659">
        <ele>2056.88</ele>
        <time>2018-03-22T06:20:05Z</time>
      </trkpt>
      <trkpt lat="45.12158" lon="5.89674">
        <ele>2060.24</ele>
        <time>2018-03-22T06:20:21Z</time>
      </trkpt>
      <trkpt lat="45.12166" lon="5.89678">
        <ele>2063.61</ele>
        <time>2018-03-22T06:20:47Z</time>
      </trkpt>
      <trkpt lat="45.12177" lon="5.89677">
        <ele>2066.97</ele>
        <time>2018-03-22T06:21:05Z</time>
      </trkpt>
      <trkpt lat="45.12188" lon="5.89679">
        <ele>2069.38</ele>
        <time>2018-03-22T06:21:21Z</time>
      </trkpt>
      <trkpt lat="45.12189" lon="5.89698">
        <ele>2074.18</ele>
        <time>2018-03-22T06:21:39Z</time>
      </trkpt>
      <trkpt lat="45.12188" lon="5.89715">
        <ele>2077.07</ele>
        <time>2018-03-22T06:21:56Z</time>
      </trkpt>
      <trkpt lat="45.12186" lon="5.89731">
        <ele>2080.91</ele>
        <time>2018-03-22T06:22:16Z</time>
      </trkpt>
      <trkpt lat="45.12181" lon="5.89745">
        <ele>2084.28</ele>
        <time>2018-03-22T06:22:40Z</time>
      </trkpt>
      <trkpt lat="45.12175" lon="5.89763">
        <ele>2088.6</ele>
        <time>2018-03-22T06:23:01Z</time>
      </trkpt>
      <trkpt lat="45.12181" lon="5.89773">
        <ele>2094.37</ele>
        <time>2018-03-22T06:23:21Z</time>
      </trkpt>
      <trkpt lat="45.12193" lon="5.89781">
        <ele>2096.29</ele>
        <time>2018-03-22T06:23:39Z</time>
      </trkpt>
      <trkpt lat="45.12206" lon="5.89786">
        <ele>2101.58</ele>
        <time>2018-03-22T06:23:58Z</time>
      </trkpt>
      <trkpt lat="45.12197" lon="5.89806">
        <ele>2106.39</ele>
        <time>2018-03-22T06:24:19Z</time>
      </trkpt>
      <trkpt lat="45.12186" lon="5.89821">
        <ele>2109.75</ele>
        <time>2018-03-22T06:24:42Z</time>
      </trkpt>
      <trkpt lat="45.12174" lon="5.89824">
        <ele>2114.56</ele>
        <time>2018-03-22T06:25:04Z</time>
      </trkpt>
      <trkpt lat="45.1218" lon="5.89832">
        <ele>2118.4</ele>
        <time>2018-03-22T06:25:22Z</time>
      </trkpt>
      <trkpt lat="45.12189" lon="5.89844">
        <ele>2122.25</ele>
        <time>2018-03-22T06:25:41Z</time>
      </trkpt>
      <trkpt lat="45.12195" lon="5.89854">
        <ele>2123.69</ele>
        <time>2018-03-22T06:25:54Z</time>
      </trkpt>
      <trkpt lat="45.12203" lon="5.89861">
        <ele>2127.53</ele>
        <time>2018-03-22T06:26:19Z</time>
      </trkpt>
      <trkpt lat="45.12203" lon="5.89871">
        <ele>2129.94</ele>
        <time>2018-03-22T06:26:38Z</time>
      </trkpt>
      <trkpt lat="45.12195" lon="5.89883">
        <ele>2134.26</ele>
        <time>2018-03-22T06:26:58Z</time>
      </trkpt>
      <trkpt lat="45.12183" lon="5.89893">
        <ele>2140.03</ele>
        <time>2018-03-22T06:27:23Z</time>
      </trkpt>
      <trkpt lat="45.12175" lon="5.899">
        <ele>2141.47</ele>
        <time>2018-03-22T06:27:37Z</time>
      </trkpt>
      <trkpt lat="45.1217" lon="5.89903">
        <ele>2145.8</ele>
        <time>2018-03-22T06:28:00Z</time>
      </trkpt>
      <trkpt lat="45.12166" lon="5.89916">
        <ele>2149.65</ele>
        <time>2018-03-22T06:28:17Z</time>
      </trkpt>
      <trkpt lat="45.12165" lon="5.89929">
        <ele>2153.49</ele>
        <time>2018-03-22T06:28:42Z</time>
      </trkpt>
      <trkpt lat="45.12172" lon="5.89939">
        <ele>2157.34</ele>
        <time>2018-03-22T06:28:59Z</time>
      </trkpt>
      <trkpt lat="45.12183" lon="5.89939">
        <ele>2162.62</ele>
        <time>2018-03-22T06:29:19Z</time>
      </trkpt>
      <trkpt lat="45.12193" lon="5.89942">
        <ele>2164.55</ele>
        <time>2018-03-22T06:29:38Z</time>
      </trkpt>
      <trkpt lat="45.12203" lon="5.89947">
        <ele>2168.87</ele>
        <time>2018-03-22T06:29:52Z</time>
      </trkpt>
      <trkpt lat="45.12212" lon="5.89949">
        <ele>2172.72</ele>
        <time>2018-03-22T06:30:06Z</time>
      </trkpt>
      <trkpt lat="45.12222" lon="5.89948">
        <ele>2176.08</ele>
        <time>2018-03-22T06:30:25Z</time>
      </trkpt>
      <trkpt lat="45.1223" lon="5.89958">
        <ele>2179.45</ele>
        <time>2018-03-22T06:30:40Z</time>
      </trkpt>
      <trkpt lat="45.12233" lon="5.89968">
        <ele>2181.37</ele>
        <time>2018-03-22T06:30:57Z</time>
      </trkpt>
      <trkpt lat="45.12242" lon="5.89977">
        <ele>2183.29</ele>
        <time>2018-03-22T06:31:25Z</time>
      </trkpt>
      <trkpt lat="45.12248" lon="5.89988">
        <ele>2186.18</ele>
        <time>2018-03-22T06:34:17Z</time>
      </trkpt>
      <trkpt lat="45.12253" lon="5.90001">
        <ele>2186.66</ele>
        <time>2018-03-22T06:34:28Z</time>
      </trkpt>
      <trkpt lat="45.12255" lon="5.90014">
        <ele>2188.1</ele>
        <time>2018-03-22T06:34:39Z</time>
      </trkpt>
      <trkpt lat="45.12262" lon="5.90021">
        <ele>2190.02</ele>
        <time>2018-03-22T06:34:51Z</time>
      </trkpt>
      <trkpt lat="45.1227" lon="5.90026">
        <ele>2192.9</ele>
        <time>2018-03-22T06:35:03Z</time>
      </trkpt>
      <trkpt lat="45.12278" lon="5.90032">
        <ele>2194.35</ele>
        <time>2018-03-22T06:35:14Z</time>
      </trkpt>
      <trkpt lat="45.12284" lon="5.90042">
        <ele>2194.83</ele>
        <time>2018-03-22T06:35:25Z</time>
      </trkpt>
      <trkpt lat="45.12291" lon="5.9005">
        <ele>2196.27</ele>
        <time>2018-03-22T06:35:36Z</time>
      </trkpt>
      <trkpt lat="45.12299" lon="5.90055">
        <ele>2199.15</ele>
        <time>2018-03-22T06:35:46Z</time>
      </trkpt>
      <trkpt lat="45.12306" lon="5.90063">
        <ele>2200.59</ele>
        <time>2018-03-22T06:35:56Z</time>
      </trkpt>
      <trkpt lat="45.12313" lon="5.90073">
        <ele>2201.56</ele>
        <time>2018-03-22T06:36:08Z</time>
      </trkpt>
      <trkpt lat="45.12318" lon="5.90082">
        <ele>2202.52</ele>
        <time>2018-03-22T06:36:34Z</time>
      </trkpt>
      <trkpt lat="45.12328" lon="5.9009">
        <ele>2203.96</ele>
        <time>2018-03-22T06:36:43Z</time>
      </trkpt>
      <trkpt lat="45.12338" lon="5.901">
        <ele>2207.32</ele>
        <time>2018-03-22T06:36:52Z</time>
      </trkpt>
      <trkpt lat="45.12346" lon="5.90108">
        <ele>2209.25</ele>
        <time>2018-03-22T06:37:01Z</time>
      </trkpt>
      <trkpt lat="45.12353" lon="5.90117">
        <ele>2209.73</ele>
        <time>2018-03-22T06:37:10Z</time>
      </trkpt>
      <trkpt lat="45.1236" lon="5.90126">
        <ele>2210.21</ele>
        <time>2018-03-22T06:37:19Z</time>
      </trkpt>
      <trkpt lat="45.12367" lon="5.90136">
        <ele>2213.09</ele>
        <time>2018-03-22T06:37:29Z</time>
      </trkpt>
      <trkpt lat="45.12374" lon="5.90146">
        <ele>2215.01</ele>
        <time>2018-03-22T06:37:40Z</time>
      </trkpt>
      <trkpt lat="45.12381" lon="5.90155">
        <ele>2216.46</ele>
        <time>2018-03-22T06:37:50Z</time>
      </trkpt>
      <trkpt lat="45.12389" lon="5.90164">
        <ele>2218.38</ele>
        <time>2018-03-22T06:38:00Z</time>
      </trkpt>
      <trkpt lat="45.12397" lon="5.90172">
        <ele>2221.26</ele>
        <time>2018-03-22T06:38:10Z</time>
      </trkpt>
      <trkpt lat="45.12405" lon="5.90182">
        <ele>2220.78</ele>
        <time>2018-03-22T06:38:20Z</time>
      </trkpt>
      <trkpt lat="45.12414" lon="5.9019">
        <ele>2223.67</ele>
        <time>2018-03-22T06:38:29Z</time>
      </trkpt>
      <trkpt lat="45.12423" lon="5.90198">
        <ele>2223.19</ele>
        <time>2018-03-22T06:38:37Z</time>
      </trkpt>
      <trkpt lat="45.12432" lon="5.90207">
        <ele>2226.07</ele>
        <time>2018-03-22T06:38:46Z</time>
      </trkpt>
      <trkpt lat="45.12441" lon="5.90215">
        <ele>2227.99</ele>
        <time>2018-03-22T06:38:55Z</time>
      </trkpt>
      <trkpt lat="45.12449" lon="5.90221">
        <ele>2230.88</ele>
        <time>2018-03-22T06:39:04Z</time>
      </trkpt>
      <trkpt lat="45.12458" lon="5.90229">
        <ele>2232.32</ele>
        <time>2018-03-22T06:39:13Z</time>
      </trkpt>
      <trkpt lat="45.12464" lon="5.9024">
        <ele>2233.76</ele>
        <time>2018-03-22T06:39:24Z</time>
      </trkpt>
      <trkpt lat="45.12472" lon="5.90249">
        <ele>2237.61</ele>
        <time>2018-03-22T06:39:33Z</time>
      </trkpt>
      <trkpt lat="45.12481" lon="5.90257">
        <ele>2241.45</ele>
        <time>2018-03-22T06:39:42Z</time>
      </trkpt>
      <trkpt lat="45.12491" lon="5.90265">
        <ele>2240.97</ele>
        <time>2018-03-22T06:39:51Z</time>
      </trkpt>
      <trkpt lat="45.125" lon="5.90273">
        <ele>2244.82</ele>
        <time>2018-03-22T06:40:00Z</time>
      </trkpt>
      <trkpt lat="45.12508" lon="5.90282">
        <ele>2247.22</ele>
        <time>2018-03-22T06:40:09Z</time>
      </trkpt>
      <trkpt lat="45.12518" lon="5.90291">
        <ele>2248.66</ele>
        <time>2018-03-22T06:40:19Z</time>
      </trkpt>
      <trkpt lat="45.12528" lon="5.90303">
        <ele>2252.03</ele>
        <time>2018-03-22T06:40:32Z</time>
      </trkpt>
      <trkpt lat="45.12537" lon="5.90314">
        <ele>2255.39</ele>
        <time>2018-03-22T06:40:43Z</time>
      </trkpt>
      <trkpt lat="45.12545" lon="5.90321">
        <ele>2257.31</ele>
        <time>2018-03-22T06:40:53Z</time>
      </trkpt>
      <trkpt lat="45.12554" lon="5.90327">
        <ele>2258.75</ele>
        <time>2018-03-22T06:41:03Z</time>
      </trkpt>
      <trkpt lat="45.12564" lon="5.90322">
        <ele>2260.2</ele>
        <time>2018-03-22T06:41:12Z</time>
      </trkpt>
      <trkpt lat="45.12573" lon="5.90314">
        <ele>2261.64</ele>
        <time>2018-03-22T06:41:20Z</time>
      </trkpt>
      <trkpt lat="45.1258" lon="5.90304">
        <ele>2260.68</ele>
        <time>2018-03-22T06:41:27Z</time>
      </trkpt>
      <trkpt lat="45.12584" lon="5.90291">
        <ele>2263.56</ele>
        <time>2018-03-22T06:41:33Z</time>
      </trkpt>
      <trkpt lat="45.12586" lon="5.90277">
        <ele>2266.45</ele>
        <time>2018-03-22T06:41:38Z</time>
      </trkpt>
      <trkpt lat="45.12586" lon="5.90263">
        <ele>2266.45</ele>
        <time>2018-03-22T06:41:43Z</time>
      </trkpt>
      <trkpt lat="45.12583" lon="5.90256">
        <ele>2264.52</ele>
        <time>2018-03-22T06:41:56Z</time>
      </trkpt>
      <trkpt lat="45.1258" lon="5.90256">
        <ele>2262.6</ele>
        <time>2018-03-22T06:44:12Z</time>
      </trkpt>
      <trkpt lat="45.12579" lon="5.90249">
        <ele>2263.08</ele>
        <time>2018-03-22T06:47:22Z</time>
      </trkpt>
      <trkpt lat="45.12584" lon="5.90241">
        <ele>2265.96</ele>
        <time>2018-03-22T06:47:55Z</time>
      </trkpt>
      <trkpt lat="45.12593" lon="5.90246">
        <ele>2263.08</ele>
        <time>2018-03-22T06:48:01Z</time>
      </trkpt>
      <trkpt lat="45.1259" lon="5.90248">
        <ele>2265</ele>
        <time>2018-03-22T06:48:40Z</time>
      </trkpt>
      <trkpt lat="45.1258" lon="5.90248">
        <ele>2265</ele>
        <time>2018-03-22T06:48:50Z</time>
      </trkpt>
      <trkpt lat="45.12582" lon="5.90261">
        <ele>2261.64</ele>
        <time>2018-03-22T06:49:25Z</time>
      </trkpt>
      <trkpt lat="45.12586" lon="5.90266">
        <ele>2266.45</ele>
        <time>2018-03-22T06:50:05Z</time>
      </trkpt>
      <trkpt lat="45.12587" lon="5.90273">
        <ele>2261.64</ele>
        <time>2018-03-22T06:51:38Z</time>
      </trkpt>
      <trkpt lat="45.12587" lon="5.90288">
        <ele>2259.72</ele>
        <time>2018-03-22T06:51:44Z</time>
      </trkpt>
      <trkpt lat="45.12586" lon="5.90304">
        <ele>2259.24</ele>
        <time>2018-03-22T06:51:48Z</time>
      </trkpt>
      <trkpt lat="45.12579" lon="5.90314">
        <ele>2258.75</ele>
        <time>2018-03-22T06:51:52Z</time>
      </trkpt>
      <trkpt lat="45.12569" lon="5.9032">
        <ele>2259.24</ele>
        <time>2018-03-22T06:51:56Z</time>
      </trkpt>
      <trkpt lat="45.1256" lon="5.90327">
        <ele>2258.75</ele>
        <time>2018-03-22T06:52:01Z</time>
      </trkpt>
      <trkpt lat="45.12547" lon="5.90328">
        <ele>2256.83</ele>
        <time>2018-03-22T06:52:04Z</time>
      </trkpt>
      <trkpt lat="45.12537" lon="5.90322">
        <ele>2255.39</ele>
        <time>2018-03-22T06:52:06Z</time>
      </trkpt>
      <trkpt lat="45.12525" lon="5.90313">
        <ele>2253.47</ele>
        <time>2018-03-22T06:52:08Z</time>
      </trkpt>
      <trkpt lat="45.12513" lon="5.903">
        <ele>2249.62</ele>
        <time>2018-03-22T06:52:10Z</time>
      </trkpt>
      <trkpt lat="45.12506" lon="5.90279">
        <ele>2247.7</ele>
        <time>2018-03-22T06:52:12Z</time>
      </trkpt>
      <trkpt lat="45.125" lon="5.90257">
        <ele>2244.33</ele>
        <time>2018-03-22T06:52:14Z</time>
      </trkpt>
      <trkpt lat="45.1249" lon="5.90241">
        <ele>2241.93</ele>
        <time>2018-03-22T06:52:16Z</time>
      </trkpt>
      <trkpt lat="45.12477" lon="5.90225">
        <ele>2236.64</ele>
        <time>2018-03-22T06:52:18Z</time>
      </trkpt>
      <trkpt lat="45.1247" lon="5.90217">
        <ele>2235.68</ele>
        <time>2018-03-22T06:52:19Z</time>
      </trkpt>
      <trkpt lat="45.12462" lon="5.90209">
        <ele>2232.8</ele>
        <time>2018-03-22T06:52:20Z</time>
      </trkpt>
      <trkpt lat="45.12455" lon="5.902">
        <ele>2229.92</ele>
        <time>2018-03-22T06:52:21Z</time>
      </trkpt>
      <trkpt lat="45.12449" lon="5.90189">
        <ele>2228.95</ele>
        <time>2018-03-22T06:52:22Z</time>
      </trkpt>
      <trkpt lat="45.12442" lon="5.9018">
        <ele>2227.51</ele>
        <time>2018-03-22T06:52:23Z</time>
      </trkpt>
      <trkpt lat="45.12433" lon="5.90175">
        <ele>2225.59</ele>
        <time>2018-03-22T06:52:24Z</time>
      </trkpt>
      <trkpt lat="45.12424" lon="5.90169">
        <ele>2224.15</ele>
        <time>2018-03-22T06:52:25Z</time>
      </trkpt>
      <trkpt lat="45.12415" lon="5.90163">
        <ele>2223.67</ele>
        <time>2018-03-22T06:52:26Z</time>
      </trkpt>
      <trkpt lat="45.12406" lon="5.90157">
        <ele>2222.22</ele>
        <time>2018-03-22T06:52:27Z</time>
      </trkpt>
      <trkpt lat="45.12398" lon="5.90148">
        <ele>2219.82</ele>
        <time>2018-03-22T06:52:28Z</time>
      </trkpt>
      <trkpt lat="45.12384" lon="5.90127">
        <ele>2216.46</ele>
        <time>2018-03-22T06:52:30Z</time>
      </trkpt>
      <trkpt lat="45.12375" lon="5.90119">
        <ele>2215.01</ele>
        <time>2018-03-22T06:52:31Z</time>
      </trkpt>
      <trkpt lat="45.12366" lon="5.90111">
        <ele>2210.69</ele>
        <time>2018-03-22T06:52:32Z</time>
      </trkpt>
      <trkpt lat="45.12358" lon="5.90101">
        <ele>2208.29</ele>
        <time>2018-03-22T06:52:33Z</time>
      </trkpt>
      <trkpt lat="45.1235" lon="5.90093">
        <ele>2208.29</ele>
        <time>2018-03-22T06:52:34Z</time>
      </trkpt>
      <trkpt lat="45.12341" lon="5.90086">
        <ele>2205.4</ele>
        <time>2018-03-22T06:52:35Z</time>
      </trkpt>
      <trkpt lat="45.12333" lon="5.90076">
        <ele>2202.04</ele>
        <time>2018-03-22T06:52:36Z</time>
      </trkpt>
      <trkpt lat="45.12324" lon="5.90068">
        <ele>2202.04</ele>
        <time>2018-03-22T06:52:37Z</time>
      </trkpt>
      <trkpt lat="45.12316" lon="5.90059">
        <ele>2199.63</ele>
        <time>2018-03-22T06:52:38Z</time>
      </trkpt>
      <trkpt lat="45.12307" lon="5.90052">
        <ele>2198.67</ele>
        <time>2018-03-22T06:52:39Z</time>
      </trkpt>
      <trkpt lat="45.12298" lon="5.90046">
        <ele>2196.75</ele>
        <time>2018-03-22T06:52:40Z</time>
      </trkpt>
      <trkpt lat="45.12291" lon="5.90038">
        <ele>2193.87</ele>
        <time>2018-03-22T06:52:41Z</time>
      </trkpt>
      <trkpt lat="45.12283" lon="5.90031">
        <ele>2193.39</ele>
        <time>2018-03-22T06:52:42Z</time>
      </trkpt>
      <trkpt lat="45.12274" lon="5.90024">
        <ele>2190.5</ele>
        <time>2018-03-22T06:52:43Z</time>
      </trkpt>
      <trkpt lat="45.12267" lon="5.90017">
        <ele>2190.02</ele>
        <time>2018-03-22T06:52:44Z</time>
      </trkpt>
      <trkpt lat="45.12258" lon="5.90011">
        <ele>2187.62</ele>
        <time>2018-03-22T06:52:45Z</time>
      </trkpt>
      <trkpt lat="45.1225" lon="5.90003">
        <ele>2183.77</ele>
        <time>2018-03-22T06:52:46Z</time>
      </trkpt>
      <trkpt lat="45.12241" lon="5.89997">
        <ele>2182.33</ele>
        <time>2018-03-22T06:52:47Z</time>
      </trkpt>
      <trkpt lat="45.12232" lon="5.89991">
        <ele>2179.45</ele>
        <time>2018-03-22T06:52:48Z</time>
      </trkpt>
      <trkpt lat="45.12222" lon="5.89984">
        <ele>2177.04</ele>
        <time>2018-03-22T06:52:49Z</time>
      </trkpt>
      <trkpt lat="45.12212" lon="5.8998">
        <ele>2175.12</ele>
        <time>2018-03-22T06:52:50Z</time>
      </trkpt>
      <trkpt lat="45.12202" lon="5.89979">
        <ele>2173.68</ele>
        <time>2018-03-22T06:52:51Z</time>
      </trkpt>
      <trkpt lat="45.12192" lon="5.89975">
        <ele>2167.43</ele>
        <time>2018-03-22T06:52:52Z</time>
      </trkpt>
      <trkpt lat="45.12184" lon="5.8997">
        <ele>2165.51</ele>
        <time>2018-03-22T06:52:53Z</time>
      </trkpt>
      <trkpt lat="45.12172" lon="5.89971">
        <ele>2169.35</ele>
        <time>2018-03-22T06:52:55Z</time>
      </trkpt>
      <trkpt lat="45.12167" lon="5.89966">
        <ele>2162.14</ele>
        <time>2018-03-22T06:54:16Z</time>
      </trkpt>
      <trkpt lat="45.1216" lon="5.8995">
        <ele>2160.22</ele>
        <time>2018-03-22T06:54:19Z</time>
      </trkpt>
      <trkpt lat="45.12147" lon="5.89941">
        <ele>2157.34</ele>
        <time>2018-03-22T06:54:21Z</time>
      </trkpt>
      <trkpt lat="45.12135" lon="5.89927">
        <ele>2151.57</ele>
        <time>2018-03-22T06:54:23Z</time>
      </trkpt>
      <trkpt lat="45.1213" lon="5.89918">
        <ele>2151.57</ele>
        <time>2018-03-22T06:54:24Z</time>
      </trkpt>
      <trkpt lat="45.12117" lon="5.89899">
        <ele>2145.8</ele>
        <time>2018-03-22T06:54:26Z</time>
      </trkpt>
      <trkpt lat="45.12111" lon="5.89889">
        <ele>2144.36</ele>
        <time>2018-03-22T06:54:27Z</time>
      </trkpt>
      <trkpt lat="45.12105" lon="5.89878">
        <ele>2141.47</ele>
        <time>2018-03-22T06:54:28Z</time>
      </trkpt>
      <trkpt lat="45.12098" lon="5.89866">
        <ele>2140.99</ele>
        <time>2018-03-22T06:54:29Z</time>
      </trkpt>
      <trkpt lat="45.12092" lon="5.89853">
        <ele>2139.07</ele>
        <time>2018-03-22T06:54:30Z</time>
      </trkpt>
      <trkpt lat="45.12087" lon="5.89838">
        <ele>2130.9</ele>
        <time>2018-03-22T06:54:31Z</time>
      </trkpt>
      <trkpt lat="45.12083" lon="5.89823">
        <ele>2131.86</ele>
        <time>2018-03-22T06:54:32Z</time>
      </trkpt>
      <trkpt lat="45.1208" lon="5.89808">
        <ele>2128.5</ele>
        <time>2018-03-22T06:54:33Z</time>
      </trkpt>
      <trkpt lat="45.12077" lon="5.89793">
        <ele>2125.13</ele>
        <time>2018-03-22T06:54:34Z</time>
      </trkpt>
      <trkpt lat="45.12072" lon="5.89781">
        <ele>2124.17</ele>
        <time>2018-03-22T06:54:35Z</time>
      </trkpt>
      <trkpt lat="45.12067" lon="5.89769">
        <ele>2118.88</ele>
        <time>2018-03-22T06:54:36Z</time>
      </trkpt>
      <trkpt lat="45.12062" lon="5.89757">
        <ele>2118.4</ele>
        <time>2018-03-22T06:54:37Z</time>
      </trkpt>
      <trkpt lat="45.12057" lon="5.89745">
        <ele>2111.67</ele>
        <time>2018-03-22T06:54:38Z</time>
      </trkpt>
      <trkpt lat="45.12051" lon="5.89734">
        <ele>2111.67</ele>
        <time>2018-03-22T06:54:39Z</time>
      </trkpt>
      <trkpt lat="45.12042" lon="5.89712">
        <ele>2101.58</ele>
        <time>2018-03-22T06:54:41Z</time>
      </trkpt>
      <trkpt lat="45.12036" lon="5.89701">
        <ele>2102.06</ele>
        <time>2018-03-22T06:54:42Z</time>
      </trkpt>
      <trkpt lat="45.12031" lon="5.89691">
        <ele>2097.25</ele>
        <time>2018-03-22T06:54:43Z</time>
      </trkpt>
      <trkpt lat="45.12017" lon="5.89673">
        <ele>2088.12</ele>
        <time>2018-03-22T06:54:45Z</time>
      </trkpt>
      <trkpt lat="45.12008" lon="5.89665">
        <ele>2087.64</ele>
        <time>2018-03-22T06:54:46Z</time>
      </trkpt>
      <trkpt lat="45.12" lon="5.89659">
        <ele>2081.39</ele>
        <time>2018-03-22T06:54:47Z</time>
      </trkpt>
      <trkpt lat="45.11992" lon="5.89649">
        <ele>2074.66</ele>
        <time>2018-03-22T06:54:48Z</time>
      </trkpt>
      <trkpt lat="45.11985" lon="5.89638">
        <ele>2077.07</ele>
        <time>2018-03-22T06:54:49Z</time>
      </trkpt>
      <trkpt lat="45.1198" lon="5.89626">
        <ele>2071.3</ele>
        <time>2018-03-22T06:54:50Z</time>
      </trkpt>
      <trkpt lat="45.11975" lon="5.89611">
        <ele>2069.38</ele>
        <time>2018-03-22T06:54:51Z</time>
      </trkpt>
      <trkpt lat="45.11969" lon="5.89596">
        <ele>2065.05</ele>
        <time>2018-03-22T06:54:52Z</time>
      </trkpt>
      <trkpt lat="45.11963" lon="5.89578">
        <ele>2052.07</ele>
        <time>2018-03-22T06:54:53Z</time>
      </trkpt>
      <trkpt lat="45.1196" lon="5.89559">
        <ele>2054.47</ele>
        <time>2018-03-22T06:54:54Z</time>
      </trkpt>
      <trkpt lat="45.11957" lon="5.89538">
        <ele>2049.67</ele>
        <time>2018-03-22T06:54:55Z</time>
      </trkpt>
      <trkpt lat="45.11958" lon="5.8952">
        <ele>2037.17</ele>
        <time>2018-03-22T06:54:56Z</time>
      </trkpt>
      <trkpt lat="45.11964" lon="5.89505">
        <ele>2032.84</ele>
        <time>2018-03-22T06:54:57Z</time>
      </trkpt>
      <trkpt lat="45.1197" lon="5.89492">
        <ele>2031.88</ele>
        <time>2018-03-22T06:54:58Z</time>
      </trkpt>
      <trkpt lat="45.11971" lon="5.89475">
        <ele>2033.33</ele>
        <time>2018-03-22T06:55:00Z</time>
      </trkpt>
      <trkpt lat="45.11977" lon="5.89467">
        <ele>2029.48</ele>
        <time>2018-03-22T06:55:04Z</time>
      </trkpt>
      <trkpt lat="45.11985" lon="5.89457">
        <ele>2029.48</ele>
        <time>2018-03-22T06:55:06Z</time>
      </trkpt>
      <trkpt lat="45.11985" lon="5.89436">
        <ele>2025.15</ele>
        <time>2018-03-22T06:55:08Z</time>
      </trkpt>
      <trkpt lat="45.11984" lon="5.89422">
        <ele>2023.23</ele>
        <time>2018-03-22T06:55:09Z</time>
      </trkpt>
      <trkpt lat="45.1198" lon="5.89407">
        <ele>2020.35</ele>
        <time>2018-03-22T06:55:10Z</time>
      </trkpt>
      <trkpt lat="45.11973" lon="5.89393">
        <ele>2016.02</ele>
        <time>2018-03-22T06:55:11Z</time>
      </trkpt>
      <trkpt lat="45.11964" lon="5.89381">
        <ele>2013.14</ele>
        <time>2018-03-22T06:55:12Z</time>
      </trkpt>
      <trkpt lat="45.11954" lon="5.89369">
        <ele>2009.77</ele>
        <time>2018-03-22T06:55:13Z</time>
      </trkpt>
      <trkpt lat="45.11943" lon="5.89357">
        <ele>2006.41</ele>
        <time>2018-03-22T06:55:14Z</time>
      </trkpt>
      <trkpt lat="45.11934" lon="5.89345">
        <ele>2004.49</ele>
        <time>2018-03-22T06:55:15Z</time>
      </trkpt>
      <trkpt lat="45.11928" lon="5.8933">
        <ele>2000.16</ele>
        <time>2018-03-22T06:55:16Z</time>
      </trkpt>
      <trkpt lat="45.11924" lon="5.89314">
        <ele>1997.28</ele>
        <time>2018-03-22T06:55:17Z</time>
      </trkpt>
      <trkpt lat="45.11923" lon="5.89298">
        <ele>1996.8</ele>
        <time>2018-03-22T06:55:18Z</time>
      </trkpt>
      <trkpt lat="45.11924" lon="5.89285">
        <ele>1992.95</ele>
        <time>2018-03-22T06:55:19Z</time>
      </trkpt>
      <trkpt lat="45.11928" lon="5.89274">
        <ele>1990.55</ele>
        <time>2018-03-22T06:55:20Z</time>
      </trkpt>
      <trkpt lat="45.11939" lon="5.89255">
        <ele>1990.07</ele>
        <time>2018-03-22T06:55:22Z</time>
      </trkpt>
      <trkpt lat="45.11948" lon="5.89238">
        <ele>1984.3</ele>
        <time>2018-03-22T06:55:24Z</time>
      </trkpt>
      <trkpt lat="45.11958" lon="5.89233">
        <ele>1978.05</ele>
        <time>2018-03-22T06:55:26Z</time>
      </trkpt>
      <trkpt lat="45.11973" lon="5.8923">
        <ele>1979.49</ele>
        <time>2018-03-22T06:55:28Z</time>
      </trkpt>
      <trkpt lat="45.11995" lon="5.89222">
        <ele>1974.69</ele>
        <time>2018-03-22T06:55:30Z</time>
      </trkpt>
      <trkpt lat="45.12007" lon="5.8922">
        <ele>1969.88</ele>
        <time>2018-03-22T06:55:31Z</time>
      </trkpt>
      <trkpt lat="45.12019" lon="5.89222">
        <ele>1965.07</ele>
        <time>2018-03-22T06:55:32Z</time>
      </trkpt>
      <trkpt lat="45.1203" lon="5.89223">
        <ele>1964.59</ele>
        <time>2018-03-22T06:55:33Z</time>
      </trkpt>
      <trkpt lat="45.12042" lon="5.89221">
        <ele>1965.55</ele>
        <time>2018-03-22T06:55:34Z</time>
      </trkpt>
      <trkpt lat="45.1205" lon="5.89215">
        <ele>1961.23</ele>
        <time>2018-03-22T06:55:35Z</time>
      </trkpt>
      <trkpt lat="45.12059" lon="5.89201">
        <ele>1960.27</ele>
        <time>2018-03-22T06:55:37Z</time>
      </trkpt>
      <trkpt lat="45.12063" lon="5.8919">
        <ele>1954.5</ele>
        <time>2018-03-22T06:55:40Z</time>
      </trkpt>
      <trkpt lat="45.12066" lon="5.89196">
        <ele>1952.57</ele>
        <time>2018-03-22T06:55:56Z</time>
      </trkpt>
      <trkpt lat="45.12078" lon="5.89191">
        <ele>1951.13</ele>
        <time>2018-03-22T06:55:58Z</time>
      </trkpt>
      <trkpt lat="45.12089" lon="5.89174">
        <ele>1944.4</ele>
        <time>2018-03-22T06:56:00Z</time>
      </trkpt>
      <trkpt lat="45.12101" lon="5.89156">
        <ele>1940.56</ele>
        <time>2018-03-22T06:56:02Z</time>
      </trkpt>
      <trkpt lat="45.12107" lon="5.89146">
        <ele>1934.79</ele>
        <time>2018-03-22T06:56:03Z</time>
      </trkpt>
      <trkpt lat="45.12112" lon="5.89134">
        <ele>1934.31</ele>
        <time>2018-03-22T06:56:04Z</time>
      </trkpt>
      <trkpt lat="45.12116" lon="5.89121">
        <ele>1928.06</ele>
        <time>2018-03-22T06:56:05Z</time>
      </trkpt>
      <trkpt lat="45.12119" lon="5.89106">
        <ele>1924.7</ele>
        <time>2018-03-22T06:56:06Z</time>
      </trkpt>
      <trkpt lat="45.12123" lon="5.8909">
        <ele>1919.89</ele>
        <time>2018-03-22T06:56:07Z</time>
      </trkpt>
      <trkpt lat="45.12128" lon="5.89073">
        <ele>1915.56</ele>
        <time>2018-03-22T06:56:08Z</time>
      </trkpt>
      <trkpt lat="45.12132" lon="5.89056">
        <ele>1915.08</ele>
        <time>2018-03-22T06:56:09Z</time>
      </trkpt>
      <trkpt lat="45.12137" lon="5.89039">
        <ele>1903.55</ele>
        <time>2018-03-22T06:56:10Z</time>
      </trkpt>
      <trkpt lat="45.12143" lon="5.89022">
        <ele>1908.35</ele>
        <time>2018-03-22T06:56:11Z</time>
      </trkpt>
      <trkpt lat="45.12148" lon="5.89004">
        <ele>1906.91</ele>
        <time>2018-03-22T06:56:12Z</time>
      </trkpt>
      <trkpt lat="45.12152" lon="5.88983">
        <ele>1902.11</ele>
        <time>2018-03-22T06:56:13Z</time>
      </trkpt>
      <trkpt lat="45.12155" lon="5.88962">
        <ele>1897.3</ele>
        <time>2018-03-22T06:56:14Z</time>
      </trkpt>
      <trkpt lat="45.12157" lon="5.88941">
        <ele>1891.05</ele>
        <time>2018-03-22T06:56:15Z</time>
      </trkpt>
      <trkpt lat="45.12159" lon="5.8892">
        <ele>1887.21</ele>
        <time>2018-03-22T06:56:16Z</time>
      </trkpt>
      <trkpt lat="45.1216" lon="5.88898">
        <ele>1885.76</ele>
        <time>2018-03-22T06:56:17Z</time>
      </trkpt>
      <trkpt lat="45.12161" lon="5.88875">
        <ele>1880.96</ele>
        <time>2018-03-22T06:56:18Z</time>
      </trkpt>
      <trkpt lat="45.12162" lon="5.88853">
        <ele>1875.67</ele>
        <time>2018-03-22T06:56:19Z</time>
      </trkpt>
      <trkpt lat="45.12162" lon="5.88831">
        <ele>1871.34</ele>
        <time>2018-03-22T06:56:20Z</time>
      </trkpt>
      <trkpt lat="45.12162" lon="5.88809">
        <ele>1864.61</ele>
        <time>2018-03-22T06:56:21Z</time>
      </trkpt>
      <trkpt lat="45.12162" lon="5.88787">
        <ele>1862.69</ele>
        <time>2018-03-22T06:56:22Z</time>
      </trkpt>
      <trkpt lat="45.12162" lon="5.88766">
        <ele>1861.73</ele>
        <time>2018-03-22T06:56:23Z</time>
      </trkpt>
      <trkpt lat="45.12161" lon="5.88746">
        <ele>1860.29</ele>
        <time>2018-03-22T06:56:24Z</time>
      </trkpt>
      <trkpt lat="45.12161" lon="5.88727">
        <ele>1861.73</ele>
        <time>2018-03-22T06:56:25Z</time>
      </trkpt>
      <trkpt lat="45.1216" lon="5.88709">
        <ele>1858.85</ele>
        <time>2018-03-22T06:56:26Z</time>
      </trkpt>
      <trkpt lat="45.12158" lon="5.88694">
        <ele>1856.92</ele>
        <time>2018-03-22T06:56:27Z</time>
      </trkpt>
      <trkpt lat="45.12154" lon="5.88682">
        <ele>1855.48</ele>
        <time>2018-03-22T06:56:28Z</time>
      </trkpt>
      <trkpt lat="45.12146" lon="5.88663">
        <ele>1853.56</ele>
        <time>2018-03-22T06:56:30Z</time>
      </trkpt>
      <trkpt lat="45.12139" lon="5.88647">
        <ele>1852.6</ele>
        <time>2018-03-22T06:56:32Z</time>
      </trkpt>
      <trkpt lat="45.12136" lon="5.88626">
        <ele>1850.19</ele>
        <time>2018-03-22T06:56:34Z</time>
      </trkpt>
      <trkpt lat="45.12143" lon="5.88611">
        <ele>1846.35</ele>
        <time>2018-03-22T06:56:36Z</time>
      </trkpt>
      <trkpt lat="45.12143" lon="5.88598">
        <ele>1843.95</ele>
        <time>2018-03-22T06:56:38Z</time>
      </trkpt>
      <trkpt lat="45.12141" lon="5.88584">
        <ele>1843.47</ele>
        <time>2018-03-22T06:56:40Z</time>
      </trkpt>
      <trkpt lat="45.12143" lon="5.88562">
        <ele>1841.06</ele>
        <time>2018-03-22T06:56:42Z</time>
      </trkpt>
      <trkpt lat="45.12145" lon="5.88547">
        <ele>1839.14</ele>
        <time>2018-03-22T06:56:43Z</time>
      </trkpt>
      <trkpt lat="45.12148" lon="5.88531">
        <ele>1837.7</ele>
        <time>2018-03-22T06:56:44Z</time>
      </trkpt>
      <trkpt lat="45.12154" lon="5.88515">
        <ele>1829.53</ele>
        <time>2018-03-22T06:56:45Z</time>
      </trkpt>
      <trkpt lat="45.1216" lon="5.885">
        <ele>1828.08</ele>
        <time>2018-03-22T06:56:46Z</time>
      </trkpt>
      <trkpt lat="45.12165" lon="5.88485">
        <ele>1823.76</ele>
        <time>2018-03-22T06:56:47Z</time>
      </trkpt>
      <trkpt lat="45.12171" lon="5.8847">
        <ele>1813.66</ele>
        <time>2018-03-22T06:56:48Z</time>
      </trkpt>
      <trkpt lat="45.12177" lon="5.88454">
        <ele>1816.55</ele>
        <time>2018-03-22T06:56:49Z</time>
      </trkpt>
      <trkpt lat="45.12183" lon="5.88438">
        <ele>1809.82</ele>
        <time>2018-03-22T06:56:50Z</time>
      </trkpt>
      <trkpt lat="45.1219" lon="5.88423">
        <ele>1807.9</ele>
        <time>2018-03-22T06:56:51Z</time>
      </trkpt>
      <trkpt lat="45.12197" lon="5.88408">
        <ele>1812.22</ele>
        <time>2018-03-22T06:56:52Z</time>
      </trkpt>
      <trkpt lat="45.12204" lon="5.88394">
        <ele>1809.82</ele>
        <time>2018-03-22T06:56:53Z</time>
      </trkpt>
      <trkpt lat="45.12211" lon="5.8838">
        <ele>1808.86</ele>
        <time>2018-03-22T06:56:54Z</time>
      </trkpt>
      <trkpt lat="45.12218" lon="5.88365">
        <ele>1805.01</ele>
        <time>2018-03-22T06:56:55Z</time>
      </trkpt>
      <trkpt lat="45.12223" lon="5.88349">
        <ele>1799.24</ele>
        <time>2018-03-22T06:56:56Z</time>
      </trkpt>
      <trkpt lat="45.12226" lon="5.88333">
        <ele>1795.88</ele>
        <time>2018-03-22T06:56:57Z</time>
      </trkpt>
      <trkpt lat="45.1223" lon="5.88318">
        <ele>1788.67</ele>
        <time>2018-03-22T06:56:58Z</time>
      </trkpt>
      <trkpt lat="45.12236" lon="5.88308">
        <ele>1782.42</ele>
        <time>2018-03-22T06:56:59Z</time>
      </trkpt>
      <trkpt lat="45.12243" lon="5.88299">
        <ele>1780.02</ele>
        <time>2018-03-22T06:57:00Z</time>
      </trkpt>
      <trkpt lat="45.12249" lon="5.88289">
        <ele>1783.38</ele>
        <time>2018-03-22T06:57:01Z</time>
      </trkpt>
      <trkpt lat="45.12252" lon="5.88269">
        <ele>1774.73</ele>
        <time>2018-03-22T06:57:03Z</time>
      </trkpt>
      <trkpt lat="45.12256" lon="5.88258">
        <ele>1771.37</ele>
        <time>2018-03-22T06:57:05Z</time>
      </trkpt>
      <trkpt lat="45.12266" lon="5.88251">
        <ele>1769.44</ele>
        <time>2018-03-22T06:57:07Z</time>
      </trkpt>
      <trkpt lat="45.12277" lon="5.88235">
        <ele>1762.71</ele>
        <time>2018-03-22T06:57:09Z</time>
      </trkpt>
      <trkpt lat="45.12293" lon="5.88225">
        <ele>1756.95</ele>
        <time>2018-03-22T06:57:11Z</time>
      </trkpt>
      <trkpt lat="45.12299" lon="5.88216">
        <ele>1751.18</ele>
        <time>2018-03-22T06:57:12Z</time>
      </trkpt>
      <trkpt lat="45.12312" lon="5.88199">
        <ele>1742.53</ele>
        <time>2018-03-22T06:57:14Z</time>
      </trkpt>
      <trkpt lat="45.12327" lon="5.88183">
        <ele>1736.28</ele>
        <time>2018-03-22T06:57:16Z</time>
      </trkpt>
      <trkpt lat="45.12334" lon="5.88173">
        <ele>1731.95</ele>
        <time>2018-03-22T06:57:17Z</time>
      </trkpt>
      <trkpt lat="45.12343" lon="5.88166">
        <ele>1726.67</ele>
        <time>2018-03-22T06:57:18Z</time>
      </trkpt>
      <trkpt lat="45.12352" lon="5.8816">
        <ele>1726.18</ele>
        <time>2018-03-22T06:57:19Z</time>
      </trkpt>
      <trkpt lat="45.12359" lon="5.88152">
        <ele>1721.38</ele>
        <time>2018-03-22T06:57:20Z</time>
      </trkpt>
      <trkpt lat="45.12366" lon="5.88141">
        <ele>1717.53</ele>
        <time>2018-03-22T06:57:21Z</time>
      </trkpt>
      <trkpt lat="45.12375" lon="5.88134">
        <ele>1711.28</ele>
        <time>2018-03-22T06:57:22Z</time>
      </trkpt>
      <trkpt lat="45.12384" lon="5.88131">
        <ele>1706</ele>
        <time>2018-03-22T06:57:23Z</time>
      </trkpt>
      <trkpt lat="45.12393" lon="5.88131">
        <ele>1706.96</ele>
        <time>2018-03-22T06:57:24Z</time>
      </trkpt>
      <trkpt lat="45.12407" lon="5.88122">
        <ele>1699.27</ele>
        <time>2018-03-22T06:57:26Z</time>
      </trkpt>
      <trkpt lat="45.1241" lon="5.8812">
        <ele>1692.06</ele>
        <time>2018-03-22T06:57:31Z</time>
      </trkpt>
      <trkpt lat="45.12406" lon="5.88122">
        <ele>1695.9</ele>
        <time>2018-03-22T06:57:42Z</time>
      </trkpt>
      <trkpt lat="45.12414" lon="5.88118">
        <ele>1694.46</ele>
        <time>2018-03-22T06:57:44Z</time>
      </trkpt>
      <trkpt lat="45.12429" lon="5.88109">
        <ele>1692.06</ele>
        <time>2018-03-22T06:57:46Z</time>
      </trkpt>
      <trkpt lat="45.12438" lon="5.88104">
        <ele>1690.14</ele>
        <time>2018-03-22T06:57:47Z</time>
      </trkpt>
      <trkpt lat="45.12448" lon="5.88098">
        <ele>1688.69</ele>
        <time>2018-03-22T06:57:48Z</time>
      </trkpt>
      <trkpt lat="45.12459" lon="5.88093">
        <ele>1686.29</ele>
        <time>2018-03-22T06:57:49Z</time>
      </trkpt>
      <trkpt lat="45.12471" lon="5.88091">
        <ele>1678.6</ele>
        <time>2018-03-22T06:57:50Z</time>
      </trkpt>
      <trkpt lat="45.12483" lon="5.8809">
        <ele>1678.12</ele>
        <time>2018-03-22T06:57:51Z</time>
      </trkpt>
      <trkpt lat="45.12495" lon="5.88086">
        <ele>1678.12</ele>
        <time>2018-03-22T06:57:52Z</time>
      </trkpt>
      <trkpt lat="45.12507" lon="5.88081">
        <ele>1674.75</ele>
        <time>2018-03-22T06:57:53Z</time>
      </trkpt>
      <trkpt lat="45.12519" lon="5.88078">
        <ele>1670.43</ele>
        <time>2018-03-22T06:57:54Z</time>
      </trkpt>
      <trkpt lat="45.12531" lon="5.88075">
        <ele>1672.83</ele>
        <time>2018-03-22T06:57:55Z</time>
      </trkpt>
      <trkpt lat="45.1254" lon="5.88069">
        <ele>1671.39</ele>
        <time>2018-03-22T06:57:56Z</time>
      </trkpt>
      <trkpt lat="45.12548" lon="5.8806">
        <ele>1667.54</ele>
        <time>2018-03-22T06:57:57Z</time>
      </trkpt>
      <trkpt lat="45.12554" lon="5.88048">
        <ele>1664.66</ele>
        <time>2018-03-22T06:57:58Z</time>
      </trkpt>
      <trkpt lat="45.12559" lon="5.88035">
        <ele>1663.7</ele>
        <time>2018-03-22T06:57:59Z</time>
      </trkpt>
      <trkpt lat="45.12564" lon="5.88022">
        <ele>1662.74</ele>
        <time>2018-03-22T06:58:00Z</time>
      </trkpt>
      <trkpt lat="45.12568" lon="5.88009">
        <ele>1660.81</ele>
        <time>2018-03-22T06:58:01Z</time>
      </trkpt>
      <trkpt lat="45.12571" lon="5.87997">
        <ele>1659.85</ele>
        <time>2018-03-22T06:58:02Z</time>
      </trkpt>
      <trkpt lat="45.12571" lon="5.87984">
        <ele>1657.45</ele>
        <time>2018-03-22T06:58:03Z</time>
      </trkpt>
      <trkpt lat="45.12571" lon="5.87961">
        <ele>1655.05</ele>
        <time>2018-03-22T06:58:05Z</time>
      </trkpt>
      <trkpt lat="45.12573" lon="5.87945">
        <ele>1654.57</ele>
        <time>2018-03-22T06:58:07Z</time>
      </trkpt>
      <trkpt lat="45.12577" lon="5.87931">
        <ele>1654.57</ele>
        <time>2018-03-22T06:58:10Z</time>
      </trkpt>
      <trkpt lat="45.12583" lon="5.87914">
        <ele>1654.57</ele>
        <time>2018-03-22T06:59:04Z</time>
      </trkpt>
      <trkpt lat="45.12581" lon="5.879">
        <ele>1653.6</ele>
        <time>2018-03-22T06:59:13Z</time>
      </trkpt>
      <trkpt lat="45.12586" lon="5.87897">
        <ele>1654.57</ele>
        <time>2018-03-22T07:00:13Z</time>
      </trkpt>
      <trkpt lat="45.12586" lon="5.87894">
        <ele>1654.09</ele>
        <time>2018-03-22T07:01:22Z</time>
      </trkpt>
      <trkpt lat="45.12589" lon="5.87893">
        <ele>1650.72</ele>
        <time>2018-03-22T07:02:16Z</time>
      </trkpt>
    </trkseg>
  </trk>
</gpx>